Nearby METAR Reports

 

KOXC - Oxford/Waterbury, Connecticut, USA
Distance from station: SE 8mi, 12km
Updated: Sun, 01-May-2016 12:45pm EDT
Light rain, Mist, Overcast
Light rain, Mist, Overcast
 Wind from S
Wind: S 7 mph , 11 km/h
Temperature: 46°F , 8°C
Wind Chill: 42°F , 6°C
Dew Point: 37°F , 3°C
Humidity: 71%
Barometer: 30.20 inHg , 1022.7 hPa
Summary: Light rain, Mist
Clouds: Overcast
Visibility: 5 miles , 8 km
Cloud details: Mostly cloudy 1500 ft
Overcast 6000 ft
2016/05/01 16:45 KOXC 011645Z 18006KT 5SM -RA BR BKN015 OVC060 08/03 A3020
KDXR - Danbury, Connecticut, USA
Distance from station: SW 19mi, 30km
Updated: Sun, 01-May-2016 1:08pm EDT
Light rain, Overcast
Light rain, Overcast
 Wind from varies
Wind: varies 5 mph , 7 km/h
Temperature: 46°F , 8°C
Wind Chill: 44°F , 7°C
Dew Point: 41°F , 5°C
Humidity: 82%
Barometer: 30.18 inHg , 1022 hPa
Summary: Light rain
Clouds: Overcast
Visibility: 9 miles , 14 km
Cloud details: Partly cloudy 1700 ft
Mostly cloudy 2500 ft
Overcast 4000 ft
2016/05/01 17:08 KDXR 011708Z VRB04KT 9SM -RA SCT017 BKN025 OVC040 08/05 A3018 RMK AO2 RAB02 P0000 T00830050
 
KMMK - Meriden, Connecticut, USA
Distance from station: E 20mi, 33km
Updated: Sun, 01-May-2016 12:53pm EDT
Overcast
Overcast
 Wind from SSE
Wind: SSE 7 mph , 11 km/h
Temperature: 50°F , 10°C
Wind Chill: 47°F , 8°C
Dew Point: 36°F , 2°C
Humidity: 58%
Barometer: 30.21 inHg , 1023 hPa
Clouds: Overcast
Visibility: 10 miles , 16 km
Cloud details: Overcast 5000 ft
2016/05/01 16:53 KMMK 011653Z AUTO 15006KT 10SM OVC050 10/02 A3021 RMK AO2 RAE29 SLP231 P0000 T01000017 TSNO $
KBDR - Bridgeport, Connecticut, USA
Distance from station: S 27mi, 44km
Updated: Sun, 01-May-2016 1:10pm EDT
Light rain, Overcast
Light rain, Overcast
 Wind from SE
Wind: SE 10 mph , 17 km/h
Temperature: 48°F , 9°C
Wind Chill: 44°F , 7°C
Dew Point: 45°F , 7°C
Humidity: 87%
Barometer: 30.19 inHg , 1022.4 hPa
Summary: Light rain
Clouds: Overcast
Visibility: 5 miles , 8 km
Cloud details: Mostly cloudy 1200 ft
Overcast 4500 ft
2016/05/01 17:10 KBDR 011710Z 13009KT 5SM -RA BKN012 OVC045 09/07 A3019 RMK AO2 P0001 T00940067 $
 
KHVN - New Haven/Tweed, Connecticut, USA
Distance from station: SE 27mi, 44km
Updated: Sun, 01-May-2016 12:53pm EDT
Overcast
Overcast
 Wind from ESE
Wind: ESE 10 mph , 17 km/h
Temperature: 48°F , 9°C
Wind Chill: 44°F , 7°C
Dew Point: 43°F , 6°C
Humidity: 82%
Barometer: 30.21 inHg , 1023 hPa
Clouds: Overcast
Visibility: 10 miles , 16 km
Cloud details: Partly cloudy 1500 ft
Overcast 5000 ft
2016/05/01 16:53 KHVN 011653Z 12009KT 10SM SCT015 OVC050 09/06 A3021 RMK AO2 RAB1556E07 SLP228 P0000 T00940061
KHFD - Hartford/Brainar, Connecticut, USA
Distance from station: ENE 32mi, 52km
Updated: Sun, 01-May-2016 12:53pm EDT
Light rain, Overcast
Light rain, Overcast
 Wind from SSE
Wind: SSE 7 mph , 11 km/h
Temperature: 52°F , 11°C
Dew Point: 36°F , 2°C
Humidity: 54%
Barometer: 30.22 inHg , 1023.4 hPa
Summary: Light rain
Clouds: Overcast
Visibility: 10 miles , 16 km
Cloud details: Overcast 6000 ft
2016/05/01 16:53 KHFD 011653Z 16006KT 10SM -RA OVC060 11/02 A3022 RMK AO2 RAB45 SLP232 P0000 T01060017
 
KPOU - Poughkeepsie, New York, USA
Distance from station: W 35mi, 56km
Updated: Sun, 01-May-2016 12:53pm EDT
Haze, Overcast
Haze, Overcast
 Wind from varies
Wind: varies 3 mph , 6 km/h
Temperature: 48°F , 9°C
Dew Point: 43°F , 6°C
Humidity: 82%
Barometer: 30.17 inHg , 1021.7 hPa
Summary: Haze
Clouds: Overcast
Visibility: 4 miles , 6 km
Cloud details: Partly cloudy 2500 ft
Overcast 3600 ft
2016/05/01 16:53 KPOU 011653Z VRB03KT 4SM HZ SCT025 OVC036 09/06 A3017 RMK AO2 RAB1555E28 SLP212 P0002 T00890056
KBDL - Windsor Locks, Connecticut, USA
Distance from station: NE 38mi, 62km
Updated: Sun, 01-May-2016 12:51pm EDT
Overcast
Overcast
 Wind from SSW
Wind: SSW 13 mph , 20 km/h
Temperature: 50°F , 10°C
Wind Chill: 45°F , 7°C
Dew Point: 28°F , -2°C
Humidity: 43%
Barometer: 30.20 inHg , 1022.7 hPa
Clouds: Overcast
Visibility: 10 miles , 16 km
Cloud details: Mostly cloudy 6000 ft
Overcast 7500 ft
2016/05/01 16:51 KBDL 011651Z 20011KT 10SM BKN060 OVC075 10/M02 A3020 RMK AO2 RAB28E46 SLP228 P0000 T01001017
 
KSNC - Chester, Connecticut, USA
Distance from station: ESE 39mi, 63km
Updated: Sun, 01-May-2016 1:15pm EDT
Overcast
Overcast
 Wind from S
Wind: S 9 mph , 15 km/h
Temperature: 48°F , 9°C
Wind Chill: 44°F , 7°C
Dew Point: 34°F , 1°C
Humidity: 58%
Barometer: 30.21 inHg , 1023 hPa
Clouds: Overcast
Visibility: 10 miles , 16 km
Cloud details: Partly cloudy 3500 ft
Mostly cloudy 4400 ft
Overcast 4900 ft
2016/05/01 17:15 KSNC 011715Z AUTO 17008KT 10SM SCT035 BKN044 OVC049 09/01 A3021 RMK AO2
KHPN - White Plains, New York, USA
Distance from station: SW 42mi, 67km
Updated: Sun, 01-May-2016 12:56pm EDT
Light rain, Overcast
Light rain, Overcast
 Wind from SE
Wind: SE 10 mph , 17 km/h
Temperature: 46°F , 8°C
Wind Chill: 41°F , 5°C
Dew Point: 45°F , 7°C
Humidity: 93%
Barometer: 30.16 inHg , 1021.3 hPa
Summary: Light rain
Clouds: Overcast
Visibility: 7 miles , 11 km
Cloud details: Mostly cloudy 1100 ft
Overcast 2900 ft
2016/05/01 16:56 KHPN 011656Z 13009KT 7SM -RA BKN011 OVC029 08/07 A3016 RMK AO2 SLP216 P0001 T00830067
 
KSWF - Newburgh/Stewart, New York, USA
Distance from station: W 45mi, 72km
Updated: Sun, 01-May-2016 12:45pm EDT
Light rain, Mist, Overcast
Light rain, Mist, Overcast
 Wind from SE
Wind: SE 9 mph , 15 km/h
Temperature: 45°F , 7°C
Wind Chill: 40°F , 4°C
Dew Point: 41°F , 5°C
Humidity: 87%
Barometer: 30.17 inHg , 1021.7 hPa
Summary: Light rain, Mist
Clouds: Overcast
Visibility: 2 1/2 miles , 2 km
Cloud details: Overcast 2000 ft
2016/05/01 16:45 KSWF 011645Z 13008KT 2 1/2SM -RA BR OVC020 07/05 A3017
KBAF - Westfield, Massachusetts, USA
Distance from station: NNE 50mi, 80km
Updated: Sun, 01-May-2016 12:53pm EDT
Light rain, Overcast
Light rain, Overcast
 Wind from varies
Wind: varies 6 mph , 9 km/h
Temperature: 48°F , 9°C
Wind Chill: 45°F , 7°C
Dew Point: 37°F , 3°C
Humidity: 66%
Barometer: 30.20 inHg , 1022.7 hPa
Summary: Light rain
Clouds: Overcast
Visibility: 9 miles , 14 km
Cloud details: Overcast 5500 ft
2016/05/01 16:53 KBAF 011653Z VRB05KT 9SM -RA OVC055 09/03 A3020 RMK AO2 RAB1557 SLP231 P0002 T00890033